sensor_id;sensor_type;location;lat;lon;timestamp;P1;durP1;ratioP1;P2;durP2;ratioP2
47617;SDS011;33336;36.728;-4.414;2022-10-15T00:02:47;3.08;;;1.27;;
47617;SDS011;33336;36.728;-4.414;2022-10-15T00:07:50;1.98;;;1.25;;
47617;SDS011;33336;36.728;-4.414;2022-10-15T00:12:55;1.95;;;1.23;;
47617;SDS011;33336;36.728;-4.414;2022-10-15T00:17:58;5.13;;;1.25;;
47617;SDS011;33336;36.728;-4.414;2022-10-15T00:23:02;3.25;;;1.02;;
47617;SDS011;33336;36.728;-4.414;2022-10-15T00:28:06;2.38;;;0.93;;
47617;SDS011;33336;36.728;-4.414;2022-10-15T00:33:10;1.80;;;1.20;;
47617;SDS011;33336;36.728;-4.414;2022-10-15T00:38:13;2.15;;;0.95;;
47617;SDS011;33336;36.728;-4.414;2022-10-15T00:48:42;2.85;;;1.00;;
47617;SDS011;33336;36.728;-4.414;2022-10-15T00:53:48;2.38;;;0.93;;
47617;SDS011;33336;36.728;-4.414;2022-10-15T00:58:53;2.83;;;0.90;;
47617;SDS011;33336;36.728;-4.414;2022-10-15T01:03:57;1.92;;;1.00;;
47617;SDS011;33336;36.728;-4.414;2022-10-15T01:09:02;2.78;;;0.70;;
47617;SDS011;33336;36.728;-4.414;2022-10-15T01:14:10;2.00;;;1.23;;
47617;SDS011;33336;36.728;-4.414;2022-10-15T01:19:27;4.63;;;1.08;;
47617;SDS011;33336;36.728;-4.414;2022-10-15T01:24:59;2.60;;;1.05;;
47617;SDS011;33336;36.728;-4.414;2022-10-15T01:30:19;3.80;;;1.27;;
47617;SDS011;33336;36.728;-4.414;2022-10-15T01:35:27;2.47;;;1.00;;
47617;SDS011;33336;36.728;-4.414;2022-10-15T01:40:37;4.82;;;2.10;;
47617;SDS011;33336;36.728;-4.414;2022-10-15T01:45:52;1.63;;;1.00;;
47617;SDS011;33336;36.728;-4.414;2022-10-15T01:50:59;4.88;;;1.13;;
47617;SDS011;33336;36.728;-4.414;2022-10-15T01:56:05;1.55;;;1.30;;
47617;SDS011;33336;36.728;-4.414;2022-10-15T02:01:12;1.45;;;1.02;;
47617;SDS011;33336;36.728;-4.414;2022-10-15T02:06:16;4.93;;;1.30;;
47617;SDS011;33336;36.728;-4.414;2022-10-15T02:11:23;2.33;;;1.00;;
47617;SDS011;33336;36.728;-4.414;2022-10-15T02:16:29;1.45;;;0.88;;
47617;SDS011;33336;36.728;-4.414;2022-10-15T02:21:40;2.08;;;1.15;;
47617;SDS011;33336;36.728;-4.414;2022-10-15T02:26:47;3.45;;;0.90;;
47617;SDS011;33336;36.728;-4.414;2022-10-15T02:31:52;2.67;;;0.80;;
47617;SDS011;33336;36.728;-4.414;2022-10-15T02:37:00;1.47;;;1.13;;
47617;SDS011;33336;36.728;-4.414;2022-10-15T02:47:09;1.08;;;0.82;;
47617;SDS011;33336;36.728;-4.414;2022-10-15T02:52:12;2.50;;;1.10;;
47617;SDS011;33336;36.728;-4.414;2022-10-15T02:57:16;4.95;;;1.27;;
47617;SDS011;33336;36.728;-4.414;2022-10-15T03:02:20;1.88;;;0.70;;
47617;SDS011;33336;36.728;-4.414;2022-10-15T03:07:24;3.97;;;0.98;;
47617;SDS011;33336;36.728;-4.414;2022-10-15T03:12:27;2.05;;;0.82;;
47617;SDS011;33336;36.728;-4.414;2022-10-15T03:17:31;3.15;;;0.93;;
47617;SDS011;33336;36.728;-4.414;2022-10-15T03:22:34;5.03;;;0.98;;
47617;SDS011;33336;36.728;-4.414;2022-10-15T03:27:37;2.95;;;0.70;;
47617;SDS011;33336;36.728;-4.414;2022-10-15T03:32:41;1.27;;;0.80;;
47617;SDS011;33336;36.728;-4.414;2022-10-15T03:37:44;2.38;;;0.80;;
47617;SDS011;33336;36.728;-4.414;2022-10-15T03:42:48;3.55;;;0.90;;
47617;SDS011;33336;36.728;-4.414;2022-10-15T03:47:53;3.50;;;1.00;;
47617;SDS011;33336;36.728;-4.414;2022-10-15T03:52:56;2.13;;;0.80;;
47617;SDS011;33336;36.728;-4.414;2022-10-15T03:57:59;2.13;;;0.85;;
47617;SDS011;33336;36.728;-4.414;2022-10-15T04:03:03;5.50;;;1.48;;
47617;SDS011;33336;36.728;-4.414;2022-10-15T04:08:07;2.28;;;0.80;;
47617;SDS011;33336;36.728;-4.414;2022-10-15T04:13:09;3.50;;;0.80;;
47617;SDS011;33336;36.728;-4.414;2022-10-15T04:18:14;4.65;;;0.90;;
47617;SDS011;33336;36.728;-4.414;2022-10-15T04:23:17;1.98;;;0.68;;
47617;SDS011;33336;36.728;-4.414;2022-10-15T04:28:21;2.13;;;0.77;;
47617;SDS011;33336;36.728;-4.414;2022-10-15T04:33:25;1.85;;;0.88;;
47617;SDS011;33336;36.728;-4.414;2022-10-15T04:38:29;2.13;;;0.90;;
47617;SDS011;33336;36.728;-4.414;2022-10-15T04:43:32;4.43;;;1.20;;
47617;SDS011;33336;36.728;-4.414;2022-10-15T04:48:37;2.50;;;0.90;;
47617;SDS011;33336;36.728;-4.414;2022-10-15T04:53:40;1.33;;;0.80;;
47617;SDS011;33336;36.728;-4.414;2022-10-15T04:58:44;2.90;;;0.85;;
47617;SDS011;33336;36.728;-4.414;2022-10-15T05:03:49;1.27;;;0.90;;
47617;SDS011;33336;36.728;-4.414;2022-10-15T05:08:53;1.48;;;0.65;;
47617;SDS011;33336;36.728;-4.414;2022-10-15T05:13:56;4.80;;;0.95;;
47617;SDS011;33336;36.728;-4.414;2022-10-15T05:19:02;1.60;;;0.80;;
47617;SDS011;33336;36.728;-4.414;2022-10-15T05:24:07;2.55;;;0.88;;
47617;SDS011;33336;36.728;-4.414;2022-10-15T05:29:11;3.95;;;1.02;;
47617;SDS011;33336;36.728;-4.414;2022-10-15T05:34:15;3.15;;;1.23;;
47617;SDS011;33336;36.728;-4.414;2022-10-15T05:39:18;1.27;;;0.63;;
47617;SDS011;33336;36.728;-4.414;2022-10-15T05:44:21;1.83;;;0.77;;
47617;SDS011;33336;36.728;-4.414;2022-10-15T05:49:25;0.90;;;0.75;;
47617;SDS011;33336;36.728;-4.414;2022-10-15T05:54:28;3.15;;;1.02;;
47617;SDS011;33336;36.728;-4.414;2022-10-15T05:59:32;2.55;;;1.00;;
47617;SDS011;33336;36.728;-4.414;2022-10-15T06:04:36;2.03;;;0.80;;
47617;SDS011;33336;36.728;-4.414;2022-10-15T06:09:40;1.92;;;1.00;;
47617;SDS011;33336;36.728;-4.414;2022-10-15T06:14:42;4.00;;;1.60;;
47617;SDS011;33336;36.728;-4.414;2022-10-15T06:19:47;2.63;;;1.08;;
47617;SDS011;33336;36.728;-4.414;2022-10-15T06:24:50;2.85;;;1.45;;
47617;SDS011;33336;36.728;-4.414;2022-10-15T06:29:53;1.63;;;0.85;;
47617;SDS011;33336;36.728;-4.414;2022-10-15T06:34:57;5.10;;;1.33;;
47617;SDS011;33336;36.728;-4.414;2022-10-15T06:40:01;4.32;;;1.10;;
47617;SDS011;33336;36.728;-4.414;2022-10-15T06:45:04;3.25;;;1.30;;
47617;SDS011;33336;36.728;-4.414;2022-10-15T06:50:10;4.40;;;1.52;;
47617;SDS011;33336;36.728;-4.414;2022-10-15T06:55:14;5.68;;;1.27;;
47617;SDS011;33336;36.728;-4.414;2022-10-15T07:00:18;3.38;;;1.27;;
47617;SDS011;33336;36.728;-4.414;2022-10-15T07:05:22;4.15;;;1.17;;
47617;SDS011;33336;36.728;-4.414;2022-10-15T07:10:26;2.58;;;1.00;;
47617;SDS011;33336;36.728;-4.414;2022-10-15T07:15:29;3.70;;;1.75;;
47617;SDS011;33336;36.728;-4.414;2022-10-15T07:20:35;3.45;;;1.10;;
47617;SDS011;33336;36.728;-4.414;2022-10-15T07:25:38;6.18;;;1.58;;
47617;SDS011;33336;36.728;-4.414;2022-10-15T07:30:41;6.35;;;1.42;;
47617;SDS011;33336;36.728;-4.414;2022-10-15T07:35:45;5.05;;;1.98;;
47617;SDS011;33336;36.728;-4.414;2022-10-15T07:40:48;4.57;;;1.52;;
47617;SDS011;33336;36.728;-4.414;2022-10-15T07:45:50;7.07;;;2.00;;
47617;SDS011;33336;36.728;-4.414;2022-10-15T07:50:55;4.47;;;1.20;;
47617;SDS011;33336;36.728;-4.414;2022-10-15T07:55:59;11.05;;;1.70;;
47617;SDS011;33336;36.728;-4.414;2022-10-15T08:01:04;4.75;;;2.00;;
47617;SDS011;33336;36.728;-4.414;2022-10-15T08:06:09;6.97;;;1.60;;
47617;SDS011;33336;36.728;-4.414;2022-10-15T08:11:13;3.75;;;1.88;;
47617;SDS011;33336;36.728;-4.414;2022-10-15T08:16:17;3.60;;;1.40;;
47617;SDS011;33336;36.728;-4.414;2022-10-15T08:21:22;2.85;;;1.27;;
47617;SDS011;33336;36.728;-4.414;2022-10-15T08:26:25;4.38;;;1.23;;
47617;SDS011;33336;36.728;-4.414;2022-10-15T08:31:28;2.97;;;1.35;;
47617;SDS011;33336;36.728;-4.414;2022-10-15T08:36:32;4.85;;;1.35;;
47617;SDS011;33336;36.728;-4.414;2022-10-15T08:41:37;5.40;;;1.63;;
47617;SDS011;33336;36.728;-4.414;2022-10-15T08:46:44;6.70;;;1.70;;
47617;SDS011;33336;36.728;-4.414;2022-10-15T08:51:52;5.32;;;1.40;;
47617;SDS011;33336;36.728;-4.414;2022-10-15T08:57:07;5.13;;;1.90;;
47617;SDS011;33336;36.728;-4.414;2022-10-15T09:02:18;7.03;;;3.10;;
47617;SDS011;33336;36.728;-4.414;2022-10-15T09:07:29;21.45;;;3.78;;
47617;SDS011;33336;36.728;-4.414;2022-10-15T09:12:39;13.90;;;3.30;;
47617;SDS011;33336;36.728;-4.414;2022-10-15T09:17:50;11.32;;;3.30;;
47617;SDS011;33336;36.728;-4.414;2022-10-15T09:22:57;10.25;;;3.00;;
47617;SDS011;33336;36.728;-4.414;2022-10-15T09:28:00;17.13;;;3.05;;
47617;SDS011;33336;36.728;-4.414;2022-10-15T09:33:12;21.05;;;4.07;;
47617;SDS011;33336;36.728;-4.414;2022-10-15T09:38:24;15.00;;;4.45;;
47617;SDS011;33336;36.728;-4.414;2022-10-15T09:43:35;13.13;;;4.13;;
47617;SDS011;33336;36.728;-4.414;2022-10-15T09:48:41;14.13;;;3.55;;
47617;SDS011;33336;36.728;-4.414;2022-10-15T09:53:54;8.35;;;3.05;;
47617;SDS011;33336;36.728;-4.414;2022-10-15T09:59:02;7.93;;;2.40;;
47617;SDS011;33336;36.728;-4.414;2022-10-15T10:04:10;7.93;;;2.78;;
47617;SDS011;33336;36.728;-4.414;2022-10-15T10:09:18;11.23;;;3.30;;
47617;SDS011;33336;36.728;-4.414;2022-10-15T10:14:24;7.28;;;1.55;;
47617;SDS011;33336;36.728;-4.414;2022-10-15T10:19:30;5.82;;;2.53;;
47617;SDS011;33336;36.728;-4.414;2022-10-15T10:24:35;6.38;;;2.75;;
47617;SDS011;33336;36.728;-4.414;2022-10-15T10:29:38;4.38;;;2.05;;
47617;SDS011;33336;36.728;-4.414;2022-10-15T10:34:44;9.15;;;1.88;;
47617;SDS011;33336;36.728;-4.414;2022-10-15T10:39:52;6.30;;;2.15;;
47617;SDS011;33336;36.728;-4.414;2022-10-15T10:45:05;4.80;;;1.42;;
47617;SDS011;33336;36.728;-4.414;2022-10-15T10:50:27;1.63;;;0.77;;
47617;SDS011;33336;36.728;-4.414;2022-10-15T10:55:36;3.15;;;1.23;;
47617;SDS011;33336;36.728;-4.414;2022-10-15T11:00:41;2.60;;;1.08;;
47617;SDS011;33336;36.728;-4.414;2022-10-15T11:05:46;5.25;;;1.40;;
47617;SDS011;33336;36.728;-4.414;2022-10-15T11:10:55;4.63;;;1.00;;
47617;SDS011;33336;36.728;-4.414;2022-10-15T11:16:06;4.47;;;1.58;;
47617;SDS011;33336;36.728;-4.414;2022-10-15T11:21:16;1.67;;;1.17;;
47617;SDS011;33336;36.728;-4.414;2022-10-15T11:26:31;2.53;;;0.93;;
47617;SDS011;33336;36.728;-4.414;2022-10-15T11:31:44;5.27;;;1.20;;
47617;SDS011;33336;36.728;-4.414;2022-10-15T11:36:57;5.57;;;1.42;;
47617;SDS011;33336;36.728;-4.414;2022-10-15T11:42:15;2.13;;;1.05;;
47617;SDS011;33336;36.728;-4.414;2022-10-15T11:47:23;3.88;;;1.02;;
47617;SDS011;33336;36.728;-4.414;2022-10-15T11:52:43;1.60;;;0.85;;
47617;SDS011;33336;36.728;-4.414;2022-10-15T11:57:58;4.78;;;1.05;;
47617;SDS011;33336;36.728;-4.414;2022-10-15T12:03:04;2.45;;;1.17;;
47617;SDS011;33336;36.728;-4.414;2022-10-15T12:08:14;1.80;;;1.10;;
47617;SDS011;33336;36.728;-4.414;2022-10-15T12:13:21;3.70;;;1.67;;
47617;SDS011;33336;36.728;-4.414;2022-10-15T12:18:31;5.15;;;0.93;;
47617;SDS011;33336;36.728;-4.414;2022-10-15T12:23:39;4.75;;;1.10;;
47617;SDS011;33336;36.728;-4.414;2022-10-15T12:28:47;1.83;;;0.98;;
47617;SDS011;33336;36.728;-4.414;2022-10-15T12:33:53;3.22;;;1.00;;
47617;SDS011;33336;36.728;-4.414;2022-10-15T12:38:58;4.03;;;0.95;;
47617;SDS011;33336;36.728;-4.414;2022-10-15T12:44:05;3.45;;;1.00;;
47617;SDS011;33336;36.728;-4.414;2022-10-15T12:55:13;2.00;;;1.20;;
47617;SDS011;33336;36.728;-4.414;2022-10-15T13:00:31;4.57;;;1.35;;
47617;SDS011;33336;36.728;-4.414;2022-10-15T13:05:51;2.42;;;1.20;;
47617;SDS011;33336;36.728;-4.414;2022-10-15T13:10:56;3.47;;;1.08;;
47617;SDS011;33336;36.728;-4.414;2022-10-15T13:16:05;3.05;;;1.35;;
47617;SDS011;33336;36.728;-4.414;2022-10-15T13:21:10;3.65;;;1.42;;
47617;SDS011;33336;36.728;-4.414;2022-10-15T13:26:18;2.35;;;1.00;;
47617;SDS011;33336;36.728;-4.414;2022-10-15T13:31:25;5.28;;;1.20;;
47617;SDS011;33336;36.728;-4.414;2022-10-15T13:36:30;2.10;;;1.00;;
47617;SDS011;33336;36.728;-4.414;2022-10-15T13:41:35;2.92;;;1.08;;
47617;SDS011;33336;36.728;-4.414;2022-10-15T13:46:42;1.42;;;0.90;;
47617;SDS011;33336;36.728;-4.414;2022-10-15T13:51:45;4.00;;;1.15;;
47617;SDS011;33336;36.728;-4.414;2022-10-15T13:56:51;4.97;;;1.70;;
47617;SDS011;33336;36.728;-4.414;2022-10-15T14:01:59;2.03;;;0.80;;
47617;SDS011;33336;36.728;-4.414;2022-10-15T14:12:21;2.47;;;0.73;;
47617;SDS011;33336;36.728;-4.414;2022-10-15T14:17:26;6.53;;;0.90;;
47617;SDS011;33336;36.728;-4.414;2022-10-15T14:22:29;3.30;;;0.80;;
47617;SDS011;33336;36.728;-4.414;2022-10-15T14:27:33;3.45;;;1.30;;
47617;SDS011;33336;36.728;-4.414;2022-10-15T14:32:44;3.35;;;1.08;;
47617;SDS011;33336;36.728;-4.414;2022-10-15T14:37:58;2.25;;;1.45;;
47617;SDS011;33336;36.728;-4.414;2022-10-15T14:43:03;2.47;;;1.13;;
47617;SDS011;33336;36.728;-4.414;2022-10-15T14:48:10;3.83;;;0.88;;
47617;SDS011;33336;36.728;-4.414;2022-10-15T14:53:19;1.95;;;1.17;;
47617;SDS011;33336;36.728;-4.414;2022-10-15T14:58:28;4.50;;;1.00;;
47617;SDS011;33336;36.728;-4.414;2022-10-15T15:03:38;3.75;;;0.68;;
47617;SDS011;33336;36.728;-4.414;2022-10-15T15:08:42;4.35;;;1.20;;
47617;SDS011;33336;36.728;-4.414;2022-10-15T15:13:46;5.40;;;1.13;;
47617;SDS011;33336;36.728;-4.414;2022-10-15T15:18:51;2.38;;;0.90;;
47617;SDS011;33336;36.728;-4.414;2022-10-15T15:23:54;1.65;;;0.90;;
47617;SDS011;33336;36.728;-4.414;2022-10-15T15:28:57;4.53;;;1.20;;
47617;SDS011;33336;36.728;-4.414;2022-10-15T15:34:02;1.83;;;0.88;;
47617;SDS011;33336;36.728;-4.414;2022-10-15T15:39:04;1.02;;;0.63;;
47617;SDS011;33336;36.728;-4.414;2022-10-15T15:44:09;3.37;;;0.93;;
47617;SDS011;33336;36.728;-4.414;2022-10-15T15:49:15;3.35;;;1.00;;
47617;SDS011;33336;36.728;-4.414;2022-10-15T15:54:18;1.55;;;0.60;;
47617;SDS011;33336;36.728;-4.414;2022-10-15T15:59:21;4.28;;;1.13;;
47617;SDS011;33336;36.728;-4.414;2022-10-15T16:04:26;2.90;;;1.27;;
47617;SDS011;33336;36.728;-4.414;2022-10-15T16:09:29;3.05;;;1.20;;
47617;SDS011;33336;36.728;-4.414;2022-10-15T16:14:32;4.80;;;1.00;;
47617;SDS011;33336;36.728;-4.414;2022-10-15T16:19:37;2.38;;;0.93;;
47617;SDS011;33336;36.728;-4.414;2022-10-15T16:24:40;1.60;;;0.90;;
47617;SDS011;33336;36.728;-4.414;2022-10-15T16:34:47;7.88;;;1.15;;
47617;SDS011;33336;36.728;-4.414;2022-10-15T16:39:51;1.33;;;0.90;;
47617;SDS011;33336;36.728;-4.414;2022-10-15T16:44:54;3.92;;;1.35;;
47617;SDS011;33336;36.728;-4.414;2022-10-15T16:49:59;3.67;;;1.30;;
47617;SDS011;33336;36.728;-4.414;2022-10-15T16:55:02;5.57;;;1.17;;
47617;SDS011;33336;36.728;-4.414;2022-10-15T17:00:05;4.88;;;1.10;;
47617;SDS011;33336;36.728;-4.414;2022-10-15T17:05:11;3.42;;;1.40;;
47617;SDS011;33336;36.728;-4.414;2022-10-15T17:10:14;5.28;;;1.50;;
47617;SDS011;33336;36.728;-4.414;2022-10-15T17:15:18;2.50;;;1.38;;
47617;SDS011;33336;36.728;-4.414;2022-10-15T17:20:23;2.50;;;1.20;;
47617;SDS011;33336;36.728;-4.414;2022-10-15T17:25:26;5.10;;;1.10;;
47617;SDS011;33336;36.728;-4.414;2022-10-15T17:30:29;5.30;;;1.58;;
47617;SDS011;33336;36.728;-4.414;2022-10-15T17:35:36;6.25;;;1.52;;
47617;SDS011;33336;36.728;-4.414;2022-10-15T17:40:39;3.00;;;1.48;;
47617;SDS011;33336;36.728;-4.414;2022-10-15T17:45:42;3.88;;;1.10;;
47617;SDS011;33336;36.728;-4.414;2022-10-15T17:50:47;3.65;;;1.30;;
47617;SDS011;33336;36.728;-4.414;2022-10-15T17:55:50;3.87;;;1.40;;
47617;SDS011;33336;36.728;-4.414;2022-10-15T18:00:54;4.40;;;1.80;;
47617;SDS011;33336;36.728;-4.414;2022-10-15T18:06:05;5.00;;;2.13;;
47617;SDS011;33336;36.728;-4.414;2022-10-15T18:11:09;4.93;;;2.42;;
47617;SDS011;33336;36.728;-4.414;2022-10-15T18:16:13;6.07;;;2.85;;
47617;SDS011;33336;36.728;-4.414;2022-10-15T18:21:18;5.50;;;3.28;;
47617;SDS011;33336;36.728;-4.414;2022-10-15T18:26:22;11.25;;;4.85;;
47617;SDS011;33336;36.728;-4.414;2022-10-15T18:31:25;7.40;;;4.13;;
47617;SDS011;33336;36.728;-4.414;2022-10-15T18:36:32;5.95;;;3.95;;
47617;SDS011;33336;36.728;-4.414;2022-10-15T18:41:35;9.00;;;3.40;;
47617;SDS011;33336;36.728;-4.414;2022-10-15T18:46:39;5.93;;;3.33;;
47617;SDS011;33336;36.728;-4.414;2022-10-15T18:51:46;8.02;;;3.35;;
47617;SDS011;33336;36.728;-4.414;2022-10-15T18:56:52;6.47;;;3.67;;
47617;SDS011;33336;36.728;-4.414;2022-10-15T19:01:55;8.70;;;4.25;;
47617;SDS011;33336;36.728;-4.414;2022-10-15T19:07:00;10.30;;;3.53;;
47617;SDS011;33336;36.728;-4.414;2022-10-15T19:12:04;8.90;;;4.75;;
47617;SDS011;33336;36.728;-4.414;2022-10-15T19:17:07;7.63;;;4.68;;
47617;SDS011;33336;36.728;-4.414;2022-10-15T19:22:12;9.48;;;4.55;;
47617;SDS011;33336;36.728;-4.414;2022-10-15T19:27:15;9.63;;;5.88;;
47617;SDS011;33336;36.728;-4.414;2022-10-15T19:32:18;7.28;;;4.97;;
47617;SDS011;33336;36.728;-4.414;2022-10-15T19:37:23;8.05;;;4.78;;
47617;SDS011;33336;36.728;-4.414;2022-10-15T19:42:25;6.93;;;3.03;;
47617;SDS011;33336;36.728;-4.414;2022-10-15T19:47:29;6.40;;;3.58;;
47617;SDS011;33336;36.728;-4.414;2022-10-15T19:52:35;7.15;;;3.50;;
47617;SDS011;33336;36.728;-4.414;2022-10-15T19:57:38;6.85;;;3.05;;
47617;SDS011;33336;36.728;-4.414;2022-10-15T20:02:41;6.43;;;2.90;;
47617;SDS011;33336;36.728;-4.414;2022-10-15T20:07:46;8.18;;;2.90;;
47617;SDS011;33336;36.728;-4.414;2022-10-15T20:12:48;6.78;;;2.92;;
47617;SDS011;33336;36.728;-4.414;2022-10-15T20:17:51;4.63;;;2.60;;
47617;SDS011;33336;36.728;-4.414;2022-10-15T20:22:56;10.07;;;3.92;;
47617;SDS011;33336;36.728;-4.414;2022-10-15T20:27:59;5.35;;;3.10;;
47617;SDS011;33336;36.728;-4.414;2022-10-15T20:33:02;5.45;;;3.28;;
47617;SDS011;33336;36.728;-4.414;2022-10-15T20:38:07;9.77;;;3.92;;
47617;SDS011;33336;36.728;-4.414;2022-10-15T20:43:10;7.22;;;3.38;;
47617;SDS011;33336;36.728;-4.414;2022-10-15T20:48:14;6.85;;;3.03;;
47617;SDS011;33336;36.728;-4.414;2022-10-15T20:53:21;6.47;;;3.22;;
47617;SDS011;33336;36.728;-4.414;2022-10-15T20:58:25;6.18;;;2.85;;
47617;SDS011;33336;36.728;-4.414;2022-10-15T21:03:27;9.65;;;3.25;;
47617;SDS011;33336;36.728;-4.414;2022-10-15T21:08:32;3.40;;;2.17;;
47617;SDS011;33336;36.728;-4.414;2022-10-15T21:13:36;7.80;;;2.80;;
47617;SDS011;33336;36.728;-4.414;2022-10-15T21:18:39;18.88;;;3.63;;
47617;SDS011;33336;36.728;-4.414;2022-10-15T21:23:44;5.05;;;2.70;;
47617;SDS011;33336;36.728;-4.414;2022-10-15T21:28:51;8.20;;;2.88;;
47617;SDS011;33336;36.728;-4.414;2022-10-15T21:33:56;7.50;;;3.45;;
47617;SDS011;33336;36.728;-4.414;2022-10-15T21:39:01;8.52;;;3.08;;
47617;SDS011;33336;36.728;-4.414;2022-10-15T21:44:07;6.32;;;3.20;;
47617;SDS011;33336;36.728;-4.414;2022-10-15T21:49:10;10.25;;;3.47;;
47617;SDS011;33336;36.728;-4.414;2022-10-15T21:54:15;10.75;;;3.10;;
47617;SDS011;33336;36.728;-4.414;2022-10-15T21:59:17;7.57;;;2.92;;
47617;SDS011;33336;36.728;-4.414;2022-10-15T22:04:20;7.55;;;2.35;;
47617;SDS011;33336;36.728;-4.414;2022-10-15T22:09:24;5.88;;;2.00;;
47617;SDS011;33336;36.728;-4.414;2022-10-15T22:14:27;11.63;;;2.00;;
47617;SDS011;33336;36.728;-4.414;2022-10-15T22:19:30;6.57;;;2.75;;
47617;SDS011;33336;36.728;-4.414;2022-10-15T22:24:35;7.68;;;3.17;;
47617;SDS011;33336;36.728;-4.414;2022-10-15T22:29:38;7.03;;;2.25;;
47617;SDS011;33336;36.728;-4.414;2022-10-15T22:34:41;9.90;;;2.30;;
47617;SDS011;33336;36.728;-4.414;2022-10-15T22:39:45;7.70;;;3.60;;
47617;SDS011;33336;36.728;-4.414;2022-10-15T22:44:48;8.60;;;2.13;;
47617;SDS011;33336;36.728;-4.414;2022-10-15T22:49:51;7.18;;;3.15;;
47617;SDS011;33336;36.728;-4.414;2022-10-15T22:54:55;5.63;;;3.03;;
47617;SDS011;33336;36.728;-4.414;2022-10-15T22:59:58;9.07;;;3.13;;
47617;SDS011;33336;36.728;-4.414;2022-10-15T23:05:01;4.05;;;2.38;;
47617;SDS011;33336;36.728;-4.414;2022-10-15T23:10:06;5.72;;;2.42;;
47617;SDS011;33336;36.728;-4.414;2022-10-15T23:15:10;3.55;;;1.90;;
47617;SDS011;33336;36.728;-4.414;2022-10-15T23:20:13;8.50;;;2.53;;
47617;SDS011;33336;36.728;-4.414;2022-10-15T23:25:18;6.32;;;2.00;;
47617;SDS011;33336;36.728;-4.414;2022-10-15T23:30:20;14.27;;;3.03;;
47617;SDS011;33336;36.728;-4.414;2022-10-15T23:35:24;8.48;;;1.85;;
47617;SDS011;33336;36.728;-4.414;2022-10-15T23:40:30;9.00;;;2.00;;
47617;SDS011;33336;36.728;-4.414;2022-10-15T23:45:33;7.55;;;1.92;;
47617;SDS011;33336;36.728;-4.414;2022-10-15T23:50:36;11.32;;;2.67;;
47617;SDS011;33336;36.728;-4.414;2022-10-15T23:55:40;7.32;;;1.77;;
